Time;durP1;ratioP1;P1;durP2;ratioP2;P2;SDS_P1;SDS_P2;PMS_P1;PMS_P2;Temp;Humidity;BMP_temperature;BMP_pressure;BME280_temperature;BME280_humidity;BME280_pressure;Samples;Min_cycle;Max_cycle;Signal;HPM_P1;HPM_P2
2021/07/04 00:02:14;;;;;;;13.20;9.80;;;;;;;15.98;100.00;100999.88;6222666;28;20050;-74
2021/07/04 00:05:18;;;;;;;20.00;10.15;;;;;;;15.96;100.00;100996.50;6222939;28;20061;-74
2021/07/04 00:08:23;;;;;;;19.10;9.25;;;;;;;15.90;100.00;100996.09;6222980;28;20057;-76
2021/07/04 00:11:25;;;;;;;14.27;9.15;;;;;;;15.94;100.00;100990.47;6221152;28;20057;-75
2021/07/04 00:14:30;;;;;;;19.13;10.60;;;;;;;15.90;100.00;100991.66;6222019;28;20489;-75
2021/07/04 00:17:32;;;;;;;13.07;9.52;;;;;;;15.88;100.00;100993.53;6222847;28;20053;-76
2021/07/04 00:20:33;;;;;;;18.70;9.05;;;;;;;15.81;100.00;100984.34;6221673;28;20428;-77
2021/07/04 00:23:35;;;;;;;14.35;9.60;;;;;;;15.79;100.00;100983.59;6222727;28;20061;-76
2021/07/04 00:26:38;;;;;;;11.35;8.93;;;;;;;15.72;100.00;100980.56;6222369;28;20058;-76
2021/07/04 00:29:39;;;;;;;10.82;8.93;;;;;;;15.70;100.00;100979.81;6222540;28;20391;-77
2021/07/04 00:32:41;;;;;;;10.63;8.45;;;;;;;15.72;100.00;100983.19;6221689;28;20046;-77
2021/07/04 00:35:42;;;;;;;9.88;8.82;;;;;;;15.67;100.00;100976.53;6222496;28;20050;-76
2021/07/04 00:38:44;;;;;;;14.63;9.40;;;;;;;15.65;100.00;100976.63;6222109;28;20512;-77
2021/07/04 00:41:47;;;;;;;16.67;9.07;;;;;;;15.64;100.00;100968.81;6221707;28;20057;-77
2021/07/04 00:44:48;;;;;;;10.43;8.38;;;;;;;15.58;100.00;100972.72;6222372;28;20057;-76
2021/07/04 00:47:51;;;;;;;25.60;9.68;;;;;;;15.56;100.00;100969.31;6221806;28;20042;-76
2021/07/04 00:50:52;;;;;;;12.95;8.05;;;;;;;15.53;100.00;100977.47;6220809;28;20045;-76
2021/07/04 00:53:54;;;;;;;11.07;8.45;;;;;;;15.50;100.00;100976.84;6221216;28;20064;-76
2021/07/04 00:56:58;;;;;;;12.85;9.57;;;;;;;15.46;100.00;100969.09;6222000;28;20497;-76
2021/07/04 01:00:00;;;;;;;15.57;9.07;;;;;;;15.40;100.00;100972.19;6221768;28;20184;-77
2021/07/04 01:03:02;;;;;;;10.35;8.95;;;;;;;15.37;100.00;100960.97;6221968;28;20593;-75
2021/07/04 01:06:03;;;;;;;10.63;8.27;;;;;;;15.40;100.00;100958.97;6221923;28;20049;-77
2021/07/04 01:09:05;;;;;;;12.20;9.18;;;;;;;15.40;100.00;100952.81;6222003;28;20054;-76
2021/07/04 01:12:08;;;;;;;10.38;8.13;;;;;;;15.40;100.00;100951.00;6221786;28;20057;-76
2021/07/04 01:15:10;;;;;;;11.25;8.90;;;;;;;15.37;100.00;100945.06;6221970;28;20046;-75
2021/07/04 01:18:12;;;;;;;13.55;8.85;;;;;;;15.36;100.00;100944.22;6221832;28;20046;-76
2021/07/04 01:21:16;;;;;;;12.60;8.60;;;;;;;15.41;100.00;100955.34;6221516;28;20049;-76
2021/07/04 01:24:18;;;;;;;10.88;8.38;;;;;;;15.41;100.00;100949.22;6221758;28;20050;-75
2021/07/04 01:27:21;;;;;;;14.27;9.27;;;;;;;15.45;100.00;100942.75;6221709;28;20053;-76
2021/07/04 01:30:23;;;;;;;12.02;8.27;;;;;;;15.47;100.00;100944.31;6221598;28;20050;-76
2021/07/04 01:33:25;;;;;;;14.23;9.18;;;;;;;15.47;100.00;100936.38;6221580;28;20050;-75
2021/07/04 01:36:26;;;;;;;12.75;8.70;;;;;;;15.52;100.00;100940.50;6221575;28;20069;-76
2021/07/04 01:39:29;;;;;;;12.88;9.05;;;;;;;15.54;100.00;100934.16;6221558;28;20049;-76
2021/07/04 01:42:30;;;;;;;14.30;8.85;;;;;;;15.55;100.00;100933.19;6221395;28;20049;-76
2021/07/04 01:45:31;;;;;;;10.82;8.68;;;;;;;15.51;100.00;100929.06;6221376;28;20394;-75
2021/07/04 01:48:33;;;;;;;11.07;8.27;;;;;;;15.51;100.00;100933.50;6221624;28;20054;-75
2021/07/04 01:51:34;;;;;;;15.90;9.63;;;;;;;15.49;100.00;100928.31;6224394;28;20050;-76
2021/07/04 01:54:37;;;;;;;11.52;8.98;;;;;;;15.41;100.00;100925.38;6225918;28;20058;-76
2021/07/04 01:57:39;;;;;;;12.23;8.32;;;;;;;15.37;100.00;100918.59;6225941;28;20065;-75
2021/07/04 02:00:42;;;;;;;20.83;9.68;;;;;;;15.31;100.00;100919.03;6225578;28;20042;-76
2021/07/04 02:03:43;;;;;;;11.18;9.77;;;;;;;15.25;100.00;100920.28;6225900;28;20505;-76
2021/07/04 02:06:45;;;;;;;14.05;9.50;;;;;;;15.22;100.00;100923.16;6225725;28;20057;-76
2021/07/04 02:09:49;;;;;;;13.38;9.60;;;;;;;15.19;100.00;100918.94;6225399;28;20057;-76
2021/07/04 02:12:51;;;;;;;12.40;8.52;;;;;;;15.17;100.00;100920.84;6225479;28;20120;-76
2021/07/04 02:15:53;;;;;;;13.50;9.70;;;;;;;15.17;100.00;100920.84;6225489;28;20060;-76
2021/07/04 02:18:54;;;;;;;14.10;9.77;;;;;;;15.13;100.00;100924.66;6225282;28;20421;-75
2021/07/04 02:21:56;;;;;;;13.48;9.20;;;;;;;15.15;100.00;100921.91;6225397;28;20054;-75
2021/07/04 02:24:58;;;;;;;17.00;9.45;;;;;;;15.15;100.00;100924.53;6225108;28;20050;-76
2021/07/04 02:28:00;;;;;;;12.10;9.27;;;;;;;15.26;100.00;100934.38;6225490;28;20637;-76
2021/07/04 02:31:01;;;;;;;11.13;8.77;;;;;;;15.40;100.00;100928.97;6224989;28;20129;-76
2021/07/04 02:34:03;;;;;;;13.23;9.02;;;;;;;15.44;100.00;100928.66;6224972;28;20417;-75
2021/07/04 02:37:04;;;;;;;11.85;8.10;;;;;;;15.47;100.00;100927.56;6224210;28;20045;-76
2021/07/04 02:40:08;;;;;;;14.32;9.38;;;;;;;15.37;100.00;100935.31;6224594;28;20054;-76
2021/07/04 02:43:13;;;;;;;13.57;9.38;;;;;;;15.37;100.00;100934.47;6250732;22;20041;-70
2021/07/04 02:46:14;;;;;;;10.73;8.02;;;;;;;15.33;100.00;100936.50;6272192;28;20556;-70
2021/07/04 02:49:16;;;;;;;14.35;9.15;;;;;;;15.25;100.00;100937.97;6251518;28;20128;-70
2021/07/04 02:52:17;;;;;;;18.63;9.77;;;;;;;15.24;100.00;100931.84;6256687;28;20408;-70
2021/07/04 02:55:21;;;;;;;18.88;9.65;;;;;;;15.24;100.00;100923.91;6271712;28;20538;-70
2021/07/04 02:58:23;;;;;;;16.88;8.85;;;;;;;15.23;100.00;100922.22;6270023;28;20045;-70
2021/07/04 03:01:24;;;;;;;12.63;9.40;;;;;;;15.24;100.00;100915.97;6247418;28;20053;-70
2021/07/04 03:04:25;;;;;;;12.52;9.38;;;;;;;15.18;100.00;100914.59;6249195;28;20054;-70
2021/07/04 03:07:27;;;;;;;12.65;9.90;;;;;;;15.14;100.00;100909.63;6249027;28;20041;-70
2021/07/04 03:10:29;;;;;;;12.75;9.50;;;;;;;15.12;100.00;100907.06;6248676;28;20049;-70
2021/07/04 03:13:31;;;;;;;12.35;10.00;;;;;;;15.12;100.00;100911.50;6248799;28;20056;-70
2021/07/04 03:16:32;;;;;;;17.45;10.52;;;;;;;15.13;100.00;100915.88;6248578;28;20069;-70
2021/07/04 03:19:34;;;;;;;13.38;9.57;;;;;;;15.13;100.00;100915.88;6248674;28;20057;-70
2021/07/04 03:22:36;;;;;;;13.05;10.52;;;;;;;15.15;100.00;100927.19;6248346;28;20053;-70
2021/07/04 03:25:39;;;;;;;13.00;9.75;;;;;;;15.16;100.00;100918.28;6248658;28;20088;-70
2021/07/04 03:28:40;;;;;;;16.30;10.68;;;;;;;15.17;100.00;100925.28;6248277;28;20425;-70
2021/07/04 03:31:42;;;;;;;17.40;10.32;;;;;;;15.15;100.00;100917.44;6248378;28;20049;-70
2021/07/04 03:34:44;;;;;;;13.65;10.27;;;;;;;15.14;100.00;100915.75;6248183;28;20057;-70
2021/07/04 03:37:46;;;;;;;16.15;10.25;;;;;;;15.16;100.00;100916.47;6248192;28;20409;-70
2021/07/04 03:40:49;;;;;;;14.50;9.90;;;;;;;15.18;100.00;100913.75;6248013;28;20050;-70
2021/07/04 03:43:50;;;;;;;13.10;9.95;;;;;;;15.22;100.00;100904.63;6248085;28;20528;-70
2021/07/04 03:46:51;;;;;;;15.05;10.38;;;;;;;15.24;100.00;100908.00;6248108;28;20042;-70
2021/07/04 03:49:53;;;;;;;15.18;10.60;;;;;;;15.29;100.00;100908.53;6247825;28;20060;-70
2021/07/04 03:52:56;;;;;;;14.73;9.85;;;;;;;15.31;100.00;100911.94;6247765;28;20049;-71
2021/07/04 03:55:58;;;;;;;17.42;11.25;;;;;;;15.36;100.00;100914.25;6247731;28;20045;-71
2021/07/04 03:59:00;;;;;;;12.55;10.00;;;;;;;15.37;100.00;100915.94;6247781;28;20507;-71
2021/07/04 04:02:01;;;;;;;19.05;12.43;;;;;;;15.41;100.00;100906.84;6247426;28;20489;-72
2021/07/04 04:05:03;;;;;;;19.48;11.65;;;;;;;15.44;100.00;100904.81;6247802;28;20049;-72
2021/07/04 04:08:06;;;;;;;16.17;11.77;;;;;;;15.47;100.00;100904.56;6247513;28;20041;-72
2021/07/04 04:11:09;;;;;;;15.48;11.75;;;;;;;15.52;100.00;100906.06;6247447;28;20053;-72
2021/07/04 04:14:10;;;;;;;21.10;13.80;;;;;;;15.54;100.00;100907.66;6246846;28;20049;-70
2021/07/04 04:17:12;;;;;;;20.67;12.95;;;;;;;15.56;100.00;100918.13;6247430;28;20046;-72
2021/07/04 04:20:14;;;;;;;17.30;12.77;;;;;;;15.56;100.00;100913.69;6247264;28;20060;-72
2021/07/04 04:23:15;;;;;;;17.17;12.75;;;;;;;15.60;100.00;100909.84;6247095;28;20053;-70
2021/07/04 04:26:18;;;;;;;17.15;12.90;;;;;;;15.61;100.00;100913.34;6247297;28;20060;-69
2021/07/04 04:29:19;;;;;;;19.55;13.70;;;;;;;15.62;100.00;100915.03;6246939;28;20425;-69
2021/07/04 04:32:21;;;;;;;22.40;13.98;;;;;;;15.65;100.00;100914.84;6247071;28;20512;-70
2021/07/04 04:35:22;;;;;;;17.27;12.98;;;;;;;15.68;100.00;100917.28;6246826;28;20056;-70
2021/07/04 04:38:23;;;;;;;19.63;12.52;;;;;;;15.66;100.00;100921.84;6247008;28;20045;-70
2021/07/04 04:41:26;;;;;;;15.98;11.70;;;;;;;15.69;100.00;100926.94;6246699;28;20060;-70
2021/07/04 04:44:27;;;;;;;18.13;11.98;;;;;;;15.68;100.00;100923.44;6246666;28;20049;-72
2021/07/04 04:47:29;;;;;;;20.40;14.07;;;;;;;15.69;100.00;100924.28;6246704;28;20120;-70
2021/07/04 04:50:30;;;;;;;19.45;13.75;;;;;;;15.72;100.00;100926.72;6246679;28;20045;-70
2021/07/04 04:53:31;;;;;;;20.67;14.35;;;;;;;15.75;100.00;100922.97;6246779;28;20053;-70
2021/07/04 04:56:35;;;;;;;16.48;12.82;;;;;;;15.81;100.00;100922.56;6246391;28;20422;-70
2021/07/04 04:59:37;;;;;;;21.40;14.43;;;;;;;15.83;100.00;100920.63;6246633;28;20531;-70
2021/07/04 05:02:39;;;;;;;20.05;14.10;;;;;;;15.83;100.00;100918.81;6246327;28;20060;-70
2021/07/04 05:05:40;;;;;;;18.25;12.93;;;;;;;15.87;100.00;100922.09;6246667;28;20611;-70
2021/07/04 05:08:41;;;;;;;20.10;13.43;;;;;;;15.94;100.00;100923.34;6246411;28;20408;-70
2021/07/04 05:11:45;;;;;;;20.38;13.52;;;;;;;15.97;100.00;100925.78;6246337;28;20489;-70
2021/07/04 05:14:46;;;;;;;19.35;13.27;;;;;;;16.03;100.00;100927.13;6246347;28;20049;-70
2021/07/04 05:17:47;;;;;;;18.88;13.63;;;;;;;16.10;100.00;100928.38;6246524;28;20055;-70
2021/07/04 05:20:49;;;;;;;21.05;13.88;;;;;;;16.14;100.00;100921.88;6246206;28;20057;-70
2021/07/04 05:23:50;;;;;;;23.70;14.50;;;;;;;16.19;100.00;100917.94;6246505;28;20523;-70
2021/07/04 05:26:52;;;;;;;18.73;13.75;;;;;;;16.22;100.00;100923.00;6250242;28;20056;-70
2021/07/04 05:29:54;;;;;;;22.15;13.18;;;;;;;16.28;100.00;100924.34;6251170;28;20049;-72
2021/07/04 05:32:55;;;;;;;19.67;13.73;;;;;;;16.34;100.00;100918.59;6251042;28;20054;-71
2021/07/04 05:35:57;;;;;;;15.20;12.10;;;;;;;16.38;100.00;100919.22;6251135;28;20052;-72
2021/07/04 05:38:58;;;;;;;19.92;12.77;;;;;;;16.42;100.00;100918.03;6251143;28;20098;-72
2021/07/04 05:42:01;;;;;;;21.80;12.45;;;;;;;16.47;100.00;100923.81;6250576;28;20416;-72
2021/07/04 05:45:09;;;;;;;23.75;13.82;;;;;;;16.53;100.00;100925.16;6250736;28;20067;-72
2021/07/04 05:48:11;;;;;;;22.48;13.77;;;;;;;16.61;100.00;100918.31;6250763;28;20060;-71
2021/07/04 05:51:12;;;;;;;18.35;13.98;;;;;;;16.65;100.00;100918.94;6250849;28;20144;-71
2021/07/04 05:54:14;;;;;;;21.40;13.18;;;;;;;16.75;100.00;100911.97;6250544;28;20056;-71
2021/07/04 05:57:16;;;;;;;20.52;12.73;;;;;;;16.83;100.00;100906.94;6250750;28;20533;-72
2021/07/04 06:00:19;;;;;;;24.23;14.30;;;;;;;16.89;100.00;100908.28;6250474;28;20045;-71
2021/07/04 06:03:20;;;;;;;24.13;15.88;;;;;;;16.95;100.00;100906.00;6250300;28;20424;-72
2021/07/04 06:06:21;;;;;;;21.90;14.98;;;;;;;17.05;100.00;100906.13;6250591;28;20046;-71
2021/07/04 06:09:23;;;;;;;23.67;14.25;;;;;;;17.10;100.00;100909.28;6250113;28;20050;-72
2021/07/04 06:12:25;;;;;;;19.95;14.45;;;;;;;17.13;100.00;100913.50;6250189;28;20062;-72
2021/07/04 06:15:27;;;;;;;23.45;15.68;;;;;;;17.19;100.00;100911.19;6250143;28;20049;-72
2021/07/04 06:18:29;;;;;;;22.92;15.88;;;;;;;17.33;100.00;100912.78;6250177;28;20049;-72
2021/07/04 06:21:30;;;;;;;21.05;14.38;;;;;;;17.40;100.00;100911.34;6250074;28;20088;-72
2021/07/04 06:24:32;;;;;;;27.85;17.00;;;;;;;17.45;100.00;100914.47;6250094;28;20049;-72
2021/07/04 06:27:35;;;;;;;21.88;16.17;;;;;;;17.51;100.00;100913.13;6250025;28;20049;-72
2021/07/04 06:30:36;;;;;;;20.75;15.88;;;;;;;17.54;100.00;100915.53;6249705;28;20140;-72
2021/07/04 06:33:38;;;;;;;25.20;16.95;;;;;;;17.67;100.00;100912.75;6249802;28;20049;-72
2021/07/04 06:36:39;;;;;;;24.27;17.23;;;;;;;17.70;100.00;100918.66;6249424;28;20053;-72
2021/07/04 06:39:41;;;;;;;21.98;16.73;;;;;;;17.71;100.00;100914.16;6249399;28;20073;-73
2021/07/04 06:42:43;;;;;;;22.75;16.88;;;;;;;17.74;100.00;100913.97;6249147;28;20507;-72
2021/07/04 06:45:45;;;;;;;24.80;17.88;;;;;;;17.86;100.00;100909.47;6249677;28;20643;-72
2021/07/04 06:48:46;;;;;;;27.67;17.67;;;;;;;17.92;100.00;100908.97;6249471;28;20045;-72
2021/07/04 06:51:48;;;;;;;22.65;16.75;;;;;;;17.82;100.00;100919.50;6249335;28;20053;-72
2021/07/04 06:54:49;;;;;;;25.30;17.00;;;;;;;17.82;100.00;100908.03;6247505;28;20566;-72
2021/07/04 06:57:52;;;;;;;27.95;18.65;;;;;;;17.85;100.00;100905.97;6247757;28;20489;-72
2021/07/04 07:00:53;;;;;;;22.90;17.23;;;;;;;17.92;100.00;100914.28;6247333;28;20054;-72
2021/07/04 07:03:55;;;;;;;24.67;16.30;;;;;;;17.94;100.00;100909.69;6247643;28;20049;-73
2021/07/04 07:06:56;;;;;;;24.35;16.35;;;;;;;17.95;100.00;100901.59;6247427;28;20065;-72
2021/07/04 07:09:57;;;;;;;25.85;18.05;;;;;;;17.98;100.00;100903.97;6247393;28;20045;-72
2021/07/04 07:13:00;;;;;;;22.33;16.13;;;;;;;18.00;100.00;100895.91;6248584;28;20045;-72
2021/07/04 07:16:01;;;;;;;24.77;17.75;;;;;;;18.03;100.00;100897.44;6248664;28;20188;-72
2021/07/04 07:19:03;;;;;;;22.27;16.80;;;;;;;18.08;100.00;100896.13;6248826;28;20045;-72
2021/07/04 07:22:05;;;;;;;23.42;16.75;;;;;;;18.15;100.00;100899.94;6248360;28;20389;-73
2021/07/04 07:25:07;;;;;;;25.13;17.38;;;;;;;18.24;100.00;100891.19;6248669;28;20056;-73
2021/07/04 07:28:10;;;;;;;21.02;16.40;;;;;;;18.27;100.00;100892.78;6248061;28;20042;-72
2021/07/04 07:31:11;;;;;;;23.20;16.60;;;;;;;18.32;100.00;100882.59;6248137;28;20049;-73
2021/07/04 07:34:13;;;;;;;22.85;16.95;;;;;;;18.38;100.00;100891.88;6248176;28;20515;-72
2021/07/04 07:37:15;;;;;;;22.30;16.55;;;;;;;18.39;100.00;100891.72;6247683;28;20046;-73
2021/07/04 07:40:16;;;;;;;24.10;15.40;;;;;;;18.49;100.00;100895.31;6248232;28;20056;-73
2021/07/04 07:43:19;;;;;;;28.45;17.30;;;;;;;18.50;100.00;100890.84;6247690;28;20054;-74
2021/07/04 07:46:20;;;;;;;21.50;15.48;;;;;;;18.57;100.00;100896.47;6248414;28;20084;-73
2021/07/04 07:49:21;;;;;;;25.48;15.75;;;;;;;18.61;100.00;100898.75;6246972;28;20049;-73
2021/07/04 07:52:23;;;;;;;22.40;15.68;;;;;;;18.65;100.00;100899.34;6247069;28;20049;-73
2021/07/04 07:55:24;;;;;;;18.77;12.75;;;;;;;18.73;100.00;100896.91;6246359;28;20052;-73
2021/07/04 07:58:27;;;;;;;20.60;13.82;;;;;;;18.93;100.00;100897.84;6247782;28;20049;-73
2021/07/04 08:01:28;;;;;;;19.52;13.20;;;;;;;18.98;100.00;100891.16;6240770;28;20056;-73
2021/07/04 08:04:30;;;;;;;17.52;12.93;;;;;;;18.92;100.00;100886.34;6239308;28;20123;-74
2021/07/04 08:07:31;;;;;;;18.60;12.45;;;;;;;18.88;100.00;100881.44;6223014;28;20054;-73
2021/07/04 08:10:33;;;;;;;18.88;11.95;;;;;;;18.88;100.00;100881.44;6239659;28;20072;-73
2021/07/04 08:13:36;;;;;;;17.33;12.52;;;;;;;18.96;100.00;100882.47;6247246;28;20496;-73
2021/07/04 08:16:37;;;;;;;15.55;11.57;;;;;;;18.92;100.00;100880.19;6247313;28;20046;-73
2021/07/04 08:19:38;;;;;;;18.15;13.05;;;;;;;19.01;100.00;100877.56;6225218;28;20509;-73
2021/07/04 08:22:40;;;;;;;18.85;12.60;;;;;;;18.90;100.00;100877.66;6221957;28;20072;-73
2021/07/04 08:25:41;;;;;;;17.35;12.00;;;;;;;19.12;100.00;100881.13;6222545;28;20413;-73
2021/07/04 08:28:44;;;;;;;14.35;10.55;;;;;;;19.07;98.95;100873.53;6222644;28;20042;-73
2021/07/04 08:31:45;;;;;;;13.95;10.38;;;;;;;19.10;96.77;100867.09;6222265;28;20053;-73
2021/07/04 08:34:46;;;;;;;17.75;11.60;;;;;;;19.25;96.96;100874.56;6228551;28;20053;-74
2021/07/04 08:37:48;;;;;;;18.23;12.77;;;;;;;19.41;98.96;100865.25;6245146;28;20493;-73
2021/07/04 08:40:50;;;;;;;16.73;12.48;;;;;;;19.42;97.43;100864.25;6245794;28;20072;-74
2021/07/04 08:43:53;;;;;;;14.85;11.43;;;;;;;19.43;98.12;100866.78;6246430;28;20053;-73
2021/07/04 08:46:54;;;;;;;14.48;10.85;;;;;;;19.46;98.32;100863.00;6246697;28;20050;-73
2021/07/04 08:49:56;;;;;;;15.45;11.23;;;;;;;19.51;98.80;100864.28;6246795;28;20045;-74
2021/07/04 08:52:59;;;;;;;17.73;11.02;;;;;;;19.59;100.00;100857.44;6270278;22;20049;-76
2021/07/04 08:56:01;;;;;;;13.70;10.38;;;;;;;19.64;100.00;100863.22;6269535;28;20056;-76
2021/07/04 08:59:04;;;;;;;14.02;10.82;;;;;;;19.74;100.00;100858.75;6254942;28;20052;-77
2021/07/04 09:02:10;;;;;;;15.18;10.02;;;;;;;19.99;97.81;100865.38;6251592;28;20527;-77
2021/07/04 09:05:13;;;;;;;13.30;10.15;;;;;;;19.99;94.10;100863.56;6254113;28;20049;-76
2021/07/04 09:08:18;;;;;;;14.13;10.27;;;;;;;19.92;91.12;100857.09;6250806;28;20045;-74
2021/07/04 09:11:20;;;;;;;14.10;10.18;;;;;;;19.89;94.24;100861.84;6254331;28;20049;-76
2021/07/04 09:14:31;;;;;;;15.45;10.68;;;;;;;19.81;95.44;100865.22;6256189;28;20052;-75
2021/07/04 09:17:35;;;;;;;13.82;10.48;;;;;;;19.78;96.65;100857.50;6255965;28;20053;-76
2021/07/04 09:20:38;;;;;;;14.95;11.05;;;;;;;19.83;95.69;100852.59;6253434;28;20049;-77
2021/07/04 09:23:39;;;;;;;16.63;10.52;;;;;;;19.84;94.54;100848.94;6246576;28;20053;-75
2021/07/04 09:26:43;;;;;;;15.63;9.10;;;;;;;19.88;95.87;100855.66;6246660;28;20045;-77
2021/07/04 09:29:49;;;;;;;16.05;9.90;;;;;;;19.97;97.68;100856.66;6246615;28;20056;-78
2021/07/04 09:32:50;;;;;;;17.48;11.75;;;;;;;19.99;95.76;100847.56;6247708;28;20145;-77
2021/07/04 09:35:57;;;;;;;18.45;11.73;;;;;;;20.06;95.83;100844.31;6247583;28;20053;-76
2021/07/04 09:38:59;;;;;;;13.73;10.43;;;;;;;20.17;97.00;100852.19;6248125;28;20484;-77
2021/07/04 09:42:09;;;;;;;18.15;13.00;;;;;;;20.45;94.79;100845.13;6247221;28;20049;-75
2021/07/04 09:45:12;;;;;;;16.70;12.95;;;;;;;20.61;95.37;100844.53;6255662;28;20044;-76
2021/07/04 09:48:15;;;;;;;19.40;12.57;;;;;;;20.54;93.66;100846.97;6263281;28;20051;-77
2021/07/04 09:51:19;;;;;;;14.82;11.38;;;;;;;20.46;95.69;100841.47;6261847;28;20056;-76
2021/07/04 09:54:20;;;;;;;14.60;11.20;;;;;;;20.48;96.54;100839.50;6269846;28;20045;-77
2021/07/04 09:57:22;;;;;;;13.57;10.95;;;;;;;20.43;95.92;100837.25;6272089;28;20048;-77
2021/07/04 10:00:27;;;;;;;15.15;11.07;;;;;;;20.52;99.11;100835.56;6262913;28;20056;-77
2021/07/04 10:03:29;;;;;;;14.48;10.55;;;;;;;20.65;97.41;100840.59;6245847;28;20053;-76
2021/07/04 10:06:44;;;;;;;13.90;11.68;;;;;;;20.71;94.48;100832.00;6246332;28;20049;-77
2021/07/04 10:09:46;;;;;;;17.15;11.02;;;;;;;20.85;89.70;100825.34;6247225;28;20049;-76
2021/07/04 10:12:47;;;;;;;12.93;10.20;;;;;;;20.82;91.26;100828.34;6249494;28;20390;-77
2021/07/04 10:15:50;;;;;;;16.33;10.10;;;;;;;20.74;92.70;100824.53;6262774;28;20045;-77
2021/07/04 10:18:52;;;;;;;13.80;9.10;;;;;;;20.93;93.55;100818.28;6269872;28;20052;-77
2021/07/04 10:21:56;;;;;;;14.45;9.18;;;;;;;21.15;94.05;100817.06;6265271;28;20512;-76
2021/07/04 10:24:58;;;;;;;12.48;9.40;;;;;;;21.58;86.23;100814.75;6268657;28;20045;-76
2021/07/04 10:28:00;;;;;;;13.18;9.65;;;;;;;21.71;88.16;100805.34;6275637;28;20045;-77
2021/07/04 10:31:09;;;;;;;12.20;8.43;;;;;;;21.66;85.81;100804.09;6274688;28;20049;-77
2021/07/04 10:34:13;;;;;;;7.78;6.22;;;;;;;21.72;85.50;100807.03;6275498;28;20484;-76
2021/07/04 10:37:16;;;;;;;8.65;6.50;;;;;;;21.87;81.42;100799.31;6275196;28;20060;-77
2021/07/04 10:40:20;;;;;;;7.28;5.45;;;;;;;21.83;78.44;100789.06;6274898;28;20053;-77
2021/07/04 10:43:59;;;;;;;8.73;5.82;;;;;;;21.78;80.68;100787.69;6274459;28;20057;-78
2021/07/04 10:47:07;;;;;;;8.57;5.32;;;;;;;21.94;79.95;100778.97;6270833;28;20056;-77
2021/07/04 10:50:12;;;;;;;8.57;6.57;;;;;;;21.99;80.91;100768.63;6260193;28;20045;-77
2021/07/04 10:53:42;;;;;;;6.35;4.72;;;;;;;21.96;78.85;100762.75;6256093;28;20332;-77
2021/07/04 10:56:44;;;;;;;6.28;4.82;;;;;;;22.17;76.75;100765.13;6256575;28;20049;-76
2021/07/04 11:00:23;;;;;;;7.65;5.45;;;;;;;22.26;80.17;100764.19;6253844;28;20045;-77
2021/07/04 11:03:28;;;;;;;6.93;4.75;;;;;;;22.09;79.02;100760.50;6257536;28;20078;-77
2021/07/04 11:06:54;;;;;;;6.28;5.60;;;;;;;22.02;83.31;100757.59;6258991;28;20053;-77
2021/07/04 11:10:21;;;;;;;7.68;5.18;;;;;;;22.37;82.04;100755.03;6260902;28;20053;-77
2021/07/04 11:13:33;;;;;;;11.52;5.32;;;;;;;22.60;80.73;100753.50;6255631;28;20068;-77
2021/07/04 11:16:36;;;;;;;5.53;4.78;;;;;;;22.88;77.69;100751.44;6256805;28;20527;-77
2021/07/04 11:20:06;;;;;;;5.95;5.22;;;;;;;23.03;76.70;100740.97;6261380;28;20049;-77
2021/07/04 11:23:09;;;;;;;7.05;5.63;;;;;;;23.24;78.57;100735.16;6248452;28;20417;-76
2021/07/04 11:26:13;;;;;;;8.93;6.05;;;;;;;23.22;76.17;100732.66;6249847;28;20052;-77
2021/07/04 11:29:14;;;;;;;7.38;5.70;;;;;;;23.18;78.65;100730.47;6249060;28;20049;-75
2021/07/04 11:32:23;;;;;;;8.20;6.35;;;;;;;23.36;79.92;100714.25;6248641;28;20061;-75
2021/07/04 11:35:25;;;;;;;;;;;;;;;23.93;75.86;100717.78;6247265;28;20049;-77
2021/07/04 11:38:29;;;;;;;6.80;6.10;;;;;;;23.81;71.97;100705.72;6249490;28;19940;-77
2021/07/04 11:41:32;;;;;;;7.65;5.70;;;;;;;23.44;73.66;100695.47;6248503;28;20050;-77
2021/07/04 11:44:33;;;;;;;9.93;5.95;;;;;;;23.43;77.29;100691.94;6249295;28;20129;-77
2021/07/04 11:47:36;;;;;;;8.50;5.85;;;;;;;23.44;80.04;100698.16;6248928;28;20056;-75
2021/07/04 11:50:46;;;;;;;7.88;6.13;;;;;;;23.44;75.04;100687.44;6248503;28;20045;-77
2021/07/04 11:53:48;;;;;;;11.88;6.85;;;;;;;23.37;75.90;100684.56;6248388;28;20053;-78
2021/07/04 11:56:53;;;;;;;9.27;6.30;;;;;;;24.10;70.99;100685.53;6250458;28;20049;-77
2021/07/04 11:59:55;;;;;;;7.65;6.07;;;;;;;24.16;70.64;100674.94;6274034;28;20041;-75
2021/07/04 12:02:59;;;;;;;8.10;6.03;;;;;;;24.68;70.44;100666.41;6273595;28;20049;-75
2021/07/04 12:06:07;;;;;;;9.27;5.68;;;;;;;25.42;70.80;100674.03;6267744;28;20052;-74
2021/07/04 12:09:09;;;;;;;6.40;5.30;;;;;;;25.45;68.75;100674.50;6265704;28;20045;-77
2021/07/04 12:12:22;;;;;;;8.98;5.95;;;;;;;25.58;68.92;100654.22;6267925;28;20049;-75
2021/07/04 12:15:23;;;;;;;17.35;5.88;;;;;;;25.81;66.31;100655.03;6272034;28;20056;-77
2021/07/04 12:18:26;;;;;;;7.28;5.53;;;;;;;25.88;65.27;100650.56;6268577;28;20045;-75
2021/07/04 12:21:37;;;;;;;8.18;5.70;;;;;;;25.58;65.76;100648.84;6257762;28;20398;-75
2021/07/04 12:24:40;;;;;;;7.30;5.93;;;;;;;24.98;70.53;100647.72;6255034;28;20046;-75
2021/07/04 12:27:44;;;;;;;8.23;5.32;;;;;;;25.27;67.18;100650.59;6254912;28;20088;-74
2021/07/04 12:30:47;;;;;;;9.07;5.70;;;;;;;25.57;65.34;100647.97;6255943;28;20068;-75
2021/07/04 12:33:50;;;;;;;8.98;6.18;;;;;;;25.19;67.52;100647.13;6255508;28;20052;-75
2021/07/04 12:36:52;;;;;;;6.65;5.53;;;;;;;24.85;67.40;100642.97;6256525;28;20045;-75
2021/07/04 12:40:09;;;;;;;8.02;6.25;;;;;;;24.38;72.59;100641.16;6256579;28;20051;-75
2021/07/04 12:43:13;;;;;;;7.13;5.80;;;;;;;24.26;69.07;100640.69;6256347;28;20045;-75
2021/07/04 12:46:16;;;;;;;12.07;6.20;;;;;;;24.38;70.46;100626.91;6256823;28;20040;-75
2021/07/04 12:49:19;;;;;;;8.98;6.00;;;;;;;25.24;66.65;100623.22;6258788;28;20053;-75
2021/07/04 12:52:20;;;;;;;11.00;6.05;;;;;;;26.33;61.44;100612.88;6253486;28;20132;-75
2021/07/04 12:55:41;;;;;;;7.85;6.38;;;;;;;26.44;61.96;100615.13;6258235;28;20052;-75
2021/07/04 12:58:43;;;;;;;7.95;6.10;;;;;;;26.05;64.24;100605.47;6254064;28;20050;-75
2021/07/04 13:01:53;;;;;;;6.90;6.20;;;;;;;25.72;67.26;100610.34;6257930;28;20496;-76
2021/07/04 13:04:56;;;;;;;7.63;5.93;;;;;;;25.22;66.90;100604.56;6257938;28;20057;-76
2021/07/04 13:07:57;;;;;;;8.35;6.20;;;;;;;24.72;67.98;100605.91;6256144;28;20060;-76
2021/07/04 13:10:59;;;;;;;9.77;5.75;;;;;;;24.75;68.63;100599.31;6258540;28;20060;-76
2021/07/04 13:14:02;;;;;;;9.43;6.43;;;;;;;24.45;70.93;100603.72;6253113;28;20524;-76
2021/07/04 13:17:05;;;;;;;7.68;6.57;;;;;;;24.68;71.12;100596.53;6258051;28;20045;-76
2021/07/04 13:20:19;;;;;;;8.68;6.00;;;;;;;25.55;68.76;100591.66;6259678;28;20519;-76
2021/07/04 13:23:21;;;;;;;8.15;5.85;;;;;;;26.13;66.21;100591.06;6271098;28;20507;-76
2021/07/04 13:26:33;;;;;;;7.18;6.15;;;;;;;26.63;60.93;100597.50;6271017;28;20049;-75
2021/07/04 13:29:40;;;;;;;7.30;5.90;;;;;;;26.99;58.03;100581.28;6271244;28;20060;-76
2021/07/04 13:32:54;;;;;;;10.27;6.18;;;;;;;26.85;57.52;100568.72;6270780;28;20056;-76
2021/07/04 13:35:57;;;;;;;8.68;5.57;;;;;;;27.27;57.75;100573.28;6271129;28;20155;-75
2021/07/04 13:38:59;;;;;;;7.93;5.93;;;;;;;27.22;58.48;100567.63;6270754;28;20044;-76
2021/07/04 13:42:00;;;;;;;10.38;6.22;;;;;;;27.50;56.68;100564.94;6270810;28;20049;-76
2021/07/04 13:45:03;;;;;;;7.78;5.72;;;;;;;27.55;54.94;100557.91;6271303;28;20064;-76
2021/07/04 13:48:08;;;;;;;7.30;5.50;;;;;;;27.86;54.99;100562.06;6275157;28;20052;-76
2021/07/04 13:51:11;;;;;;;8.25;5.35;;;;;;;26.96;55.53;100570.88;6275562;28;20049;-76
2021/07/04 13:54:12;;;;;;;7.32;5.40;;;;;;;26.59;58.11;100567.41;6275373;28;20610;-76